sensor_id;sensor_type;location;lat;lon;timestamp;pressure;altitude;pressure_sealevel;temperature;humidity
32197;BME280;18697;42.770;23.400;2022-12-07T00:03:47;95678.41;;;7.20;84.12
32197;BME280;18697;42.770;23.400;2022-12-07T00:06:14;95671.66;;;7.21;83.15
32197;BME280;18697;42.770;23.400;2022-12-07T00:08:40;95656.06;;;7.14;83.39
32197;BME280;18697;42.770;23.400;2022-12-07T00:11:17;95652.75;;;7.19;82.88
32197;BME280;18697;42.770;23.400;2022-12-07T00:13:43;95652.09;;;7.03;83.81
32197;BME280;18697;42.770;23.400;2022-12-07T00:16:17;95660.78;;;6.88;84.67
32197;BME280;18697;42.770;23.400;2022-12-07T00:18:44;95662.53;;;6.82;85.43
32197;BME280;18697;42.770;23.400;2022-12-07T00:21:13;95664.69;;;7.16;84.68
32197;BME280;18697;42.770;23.400;2022-12-07T00:23:40;95667.69;;;7.22;84.13
32197;BME280;18697;42.770;23.400;2022-12-07T00:26:07;95664.94;;;7.35;83.41
32197;BME280;18697;42.770;23.400;2022-12-07T00:28:33;95673.63;;;7.58;82.29
32197;BME280;18697;42.770;23.400;2022-12-07T00:30:59;95673.50;;;7.75;81.98
32197;BME280;18697;42.770;23.400;2022-12-07T00:33:25;95670.19;;;7.80;80.99
32197;BME280;18697;42.770;23.400;2022-12-07T00:35:55;95680.00;;;7.94;80.40
32197;BME280;18697;42.770;23.400;2022-12-07T00:38:21;95669.38;;;8.05;79.90
32197;BME280;18697;42.770;23.400;2022-12-07T00:40:53;95675.75;;;8.14;79.05
32197;BME280;18697;42.770;23.400;2022-12-07T00:43:18;95690.69;;;8.17;79.05
32197;BME280;18697;42.770;23.400;2022-12-07T00:45:44;95683.78;;;8.21;79.02
32197;BME280;18697;42.770;23.400;2022-12-07T00:48:09;95681.34;;;8.23;79.00
32197;BME280;18697;42.770;23.400;2022-12-07T00:50:34;95669.97;;;8.21;78.58
32197;BME280;18697;42.770;23.400;2022-12-07T00:53:00;95662.75;;;8.24;77.93
32197;BME280;18697;42.770;23.400;2022-12-07T00:55:25;95655.81;;;8.19;77.94
32197;BME280;18697;42.770;23.400;2022-12-07T00:57:50;95669.19;;;7.74;80.14
32197;BME280;18697;42.770;23.400;2022-12-07T01:00:16;95662.53;;;7.84;79.77
32197;BME280;18697;42.770;23.400;2022-12-07T01:02:41;95664.28;;;8.03;79.75
32197;BME280;18697;42.770;23.400;2022-12-07T01:05:07;95656.63;;;8.07;78.99
32197;BME280;18697;42.770;23.400;2022-12-07T01:07:33;95654.41;;;8.15;78.77
32197;BME280;18697;42.770;23.400;2022-12-07T01:09:58;95651.47;;;8.18;78.67
32197;BME280;18697;42.770;23.400;2022-12-07T01:12:23;95661.75;;;8.31;77.96
32197;BME280;18697;42.770;23.400;2022-12-07T01:14:49;95665.50;;;8.37;77.53
32197;BME280;18697;42.770;23.400;2022-12-07T01:17:14;95659.53;;;8.38;77.77
32197;BME280;18697;42.770;23.400;2022-12-07T01:19:39;95659.97;;;8.37;77.51
32197;BME280;18697;42.770;23.400;2022-12-07T01:22:05;95650.78;;;8.27;77.64
32197;BME280;18697;42.770;23.400;2022-12-07T01:24:30;95649.81;;;8.34;77.36
32197;BME280;18697;42.770;23.400;2022-12-07T01:26:56;95643.69;;;8.39;77.06
32197;BME280;18697;42.770;23.400;2022-12-07T01:29:21;95653.28;;;8.47;77.35
32197;BME280;18697;42.770;23.400;2022-12-07T01:31:48;95643.91;;;8.44;77.03
32197;BME280;18697;42.770;23.400;2022-12-07T01:34:14;95641.91;;;8.45;77.37
32197;BME280;18697;42.770;23.400;2022-12-07T01:36:39;95640.88;;;8.51;76.93
32197;BME280;18697;42.770;23.400;2022-12-07T01:39:06;95639.53;;;8.56;76.73
32197;BME280;18697;42.770;23.400;2022-12-07T01:41:35;95639.97;;;8.54;76.42
32197;BME280;18697;42.770;23.400;2022-12-07T01:46:55;95640.81;;;8.64;76.17
32197;BME280;18697;42.770;23.400;2022-12-07T01:52:22;95639.19;;;8.76;75.33
32197;BME280;18697;42.770;23.400;2022-12-07T01:54:51;95635.97;;;8.77;75.25
32197;BME280;18697;42.770;23.400;2022-12-07T01:57:19;95630.44;;;8.77;74.81
32197;BME280;18697;42.770;23.400;2022-12-07T01:59:47;95622.84;;;8.69;74.69
32197;BME280;18697;42.770;23.400;2022-12-07T02:02:19;95628.84;;;8.67;75.00
32197;BME280;18697;42.770;23.400;2022-12-07T02:04:46;95623.94;;;8.71;74.82
32197;BME280;18697;42.770;23.400;2022-12-07T02:07:12;95624.97;;;8.65;74.87
32197;BME280;18697;42.770;23.400;2022-12-07T02:09:38;95624.19;;;8.64;75.07
32197;BME280;18697;42.770;23.400;2022-12-07T02:12:04;95620.22;;;8.65;74.84
32197;BME280;18697;42.770;23.400;2022-12-07T02:14:29;95619.13;;;8.63;74.73
32197;BME280;18697;42.770;23.400;2022-12-07T02:23:07;95616.88;;;8.70;74.67
32197;BME280;18697;42.770;23.400;2022-12-07T02:28:36;95613.97;;;8.52;74.66
32197;BME280;18697;42.770;23.400;2022-12-07T02:31:10;95607.59;;;8.42;74.54
32197;BME280;18697;42.770;23.400;2022-12-07T02:34:03;95614.78;;;8.40;74.98
32197;BME280;18697;42.770;23.400;2022-12-07T02:36:32;95608.94;;;8.38;75.13
32197;BME280;18697;42.770;23.400;2022-12-07T02:39:31;95610.69;;;8.44;75.07
32197;BME280;18697;42.770;23.400;2022-12-07T02:42:03;95610.56;;;8.48;74.65
32197;BME280;18697;42.770;23.400;2022-12-07T02:44:32;95600.06;;;8.43;74.31
32197;BME280;18697;42.770;23.400;2022-12-07T02:47:03;95600.09;;;8.30;74.55
32197;BME280;18697;42.770;23.400;2022-12-07T02:49:32;95589.41;;;8.19;74.89
32197;BME280;18697;42.770;23.400;2022-12-07T02:51:57;95608.06;;;8.28;75.37
32197;BME280;18697;42.770;23.400;2022-12-07T02:54:23;95594.69;;;8.27;75.24
32197;BME280;18697;42.770;23.400;2022-12-07T02:56:53;95609.25;;;8.40;74.81
32197;BME280;18697;42.770;23.400;2022-12-07T03:02:35;95601.41;;;8.38;74.81
32197;BME280;18697;42.770;23.400;2022-12-07T03:09:05;95604.31;;;8.22;74.87
32197;BME280;18697;42.770;23.400;2022-12-07T03:11:25;95597.84;;;8.16;74.95
32197;BME280;18697;42.770;23.400;2022-12-07T03:14:14;95593.47;;;8.06;75.74
32197;BME280;18697;42.770;23.400;2022-12-07T03:17:00;95585.34;;;7.89;76.80
32197;BME280;18697;42.770;23.400;2022-12-07T03:19:28;95580.50;;;7.81;77.49
32197;BME280;18697;42.770;23.400;2022-12-07T03:22:14;95574.63;;;7.79;77.72
32197;BME280;18697;42.770;23.400;2022-12-07T03:24:48;95582.28;;;7.75;78.10
32197;BME280;18697;42.770;23.400;2022-12-07T03:27:23;95575.94;;;7.87;77.67
32197;BME280;18697;42.770;23.400;2022-12-07T03:30:20;95584.31;;;7.96;77.56
32197;BME280;18697;42.770;23.400;2022-12-07T03:33:07;95586.19;;;7.99;77.51
32197;BME280;18697;42.770;23.400;2022-12-07T03:35:58;95586.84;;;8.03;76.76
32197;BME280;18697;42.770;23.400;2022-12-07T03:38:33;95581.41;;;8.00;76.36
32197;BME280;18697;42.770;23.400;2022-12-07T03:41:09;95588.53;;;7.88;76.05
32197;BME280;18697;42.770;23.400;2022-12-07T03:43:37;95591.19;;;7.91;75.90
32197;BME280;18697;42.770;23.400;2022-12-07T03:51:43;95603.91;;;7.89;75.07
32197;BME280;18697;42.770;23.400;2022-12-07T03:54:16;95596.28;;;7.93;74.97
32197;BME280;18697;42.770;23.400;2022-12-07T03:56:44;95595.84;;;7.82;74.94
32197;BME280;18697;42.770;23.400;2022-12-07T03:59:11;95597.41;;;7.83;75.07
32197;BME280;18697;42.770;23.400;2022-12-07T04:01:38;95582.59;;;7.77;74.84
32197;BME280;18697;42.770;23.400;2022-12-07T04:04:03;95583.16;;;7.72;75.25
32197;BME280;18697;42.770;23.400;2022-12-07T04:06:29;95593.34;;;7.75;75.54
32197;BME280;18697;42.770;23.400;2022-12-07T04:08:54;95575.31;;;7.70;75.61
32197;BME280;18697;42.770;23.400;2022-12-07T04:11:20;95586.50;;;7.67;76.07
32197;BME280;18697;42.770;23.400;2022-12-07T04:13:45;95588.28;;;7.61;76.21
32197;BME280;18697;42.770;23.400;2022-12-07T04:16:29;95582.06;;;7.69;76.55
32197;BME280;18697;42.770;23.400;2022-12-07T04:18:54;95583.94;;;7.72;76.34
32197;BME280;18697;42.770;23.400;2022-12-07T04:21:20;95574.66;;;7.66;76.14
32197;BME280;18697;42.770;23.400;2022-12-07T04:23:45;95571.69;;;7.61;76.49
32197;BME280;18697;42.770;23.400;2022-12-07T04:26:11;95570.91;;;7.60;76.52
32197;BME280;18697;42.770;23.400;2022-12-07T04:28:36;95571.94;;;7.53;76.08
32197;BME280;18697;42.770;23.400;2022-12-07T04:31:01;95571.38;;;7.46;76.62
32197;BME280;18697;42.770;23.400;2022-12-07T04:33:27;95589.41;;;7.50;76.96
32197;BME280;18697;42.770;23.400;2022-12-07T04:35:52;95570.50;;;7.49;76.44
32197;BME280;18697;42.770;23.400;2022-12-07T04:38:18;95571.16;;;7.53;76.20
32197;BME280;18697;42.770;23.400;2022-12-07T04:40:43;95585.53;;;7.48;75.87
32197;BME280;18697;42.770;23.400;2022-12-07T04:43:08;95579.13;;;7.51;75.77
32197;BME280;18697;42.770;23.400;2022-12-07T04:45:34;95582.88;;;7.57;75.16
32197;BME280;18697;42.770;23.400;2022-12-07T04:47:59;95584.44;;;7.45;74.84
32197;BME280;18697;42.770;23.400;2022-12-07T04:50:24;95588.50;;;7.53;75.22
32197;BME280;18697;42.770;23.400;2022-12-07T04:52:50;95583.88;;;7.50;74.82
32197;BME280;18697;42.770;23.400;2022-12-07T04:55:15;95584.09;;;7.43;74.66
32197;BME280;18697;42.770;23.400;2022-12-07T04:57:41;95592.72;;;7.45;74.48
32197;BME280;18697;42.770;23.400;2022-12-07T05:00:06;95591.06;;;7.48;74.23
32197;BME280;18697;42.770;23.400;2022-12-07T05:02:32;95588.50;;;7.53;73.79
32197;BME280;18697;42.770;23.400;2022-12-07T05:04:58;95585.09;;;7.49;74.33
32197;BME280;18697;42.770;23.400;2022-12-07T05:07:23;95590.94;;;7.51;74.13
32197;BME280;18697;42.770;23.400;2022-12-07T05:09:48;95590.88;;;7.42;73.81
32197;BME280;18697;42.770;23.400;2022-12-07T05:12:13;95596.59;;;7.48;74.06
32197;BME280;18697;42.770;23.400;2022-12-07T05:14:39;95586.34;;;7.36;74.37
32197;BME280;18697;42.770;23.400;2022-12-07T05:17:04;95583.38;;;7.30;74.38
32197;BME280;18697;42.770;23.400;2022-12-07T05:19:30;95591.88;;;7.23;75.15
32197;BME280;18697;42.770;23.400;2022-12-07T05:21:55;95589.00;;;7.14;75.55
32197;BME280;18697;42.770;23.400;2022-12-07T05:24:20;95582.16;;;7.06;75.63
32197;BME280;18697;42.770;23.400;2022-12-07T05:26:46;95584.25;;;7.02;75.99
32197;BME280;18697;42.770;23.400;2022-12-07T05:29:14;95586.25;;;7.01;76.47
32197;BME280;18697;42.770;23.400;2022-12-07T05:31:39;95589.44;;;7.12;76.07
32197;BME280;18697;42.770;23.400;2022-12-07T05:34:04;95599.84;;;7.21;76.06
32197;BME280;18697;42.770;23.400;2022-12-07T05:36:30;95592.88;;;7.16;76.09
32197;BME280;18697;42.770;23.400;2022-12-07T05:38:57;95592.09;;;7.16;74.64
32197;BME280;18697;42.770;23.400;2022-12-07T05:41:23;95594.97;;;7.00;74.73
32197;BME280;18697;42.770;23.400;2022-12-07T05:44:07;95600.38;;;7.03;75.26
32197;BME280;18697;42.770;23.400;2022-12-07T05:46:32;95601.94;;;6.91;75.39
32197;BME280;18697;42.770;23.400;2022-12-07T05:48:58;95593.53;;;6.95;75.46
32197;BME280;18697;42.770;23.400;2022-12-07T05:51:23;95590.31;;;6.97;75.27
32197;BME280;18697;42.770;23.400;2022-12-07T05:53:49;95594.31;;;6.96;75.33
32197;BME280;18697;42.770;23.400;2022-12-07T05:56:14;95594.06;;;6.90;75.50
32197;BME280;18697;42.770;23.400;2022-12-07T05:58:40;95589.00;;;6.88;75.36
32197;BME280;18697;42.770;23.400;2022-12-07T06:01:24;95580.81;;;6.85;75.98
32197;BME280;18697;42.770;23.400;2022-12-07T06:03:49;95590.53;;;6.89;75.95
32197;BME280;18697;42.770;23.400;2022-12-07T06:06:15;95578.72;;;6.89;75.85
32197;BME280;18697;42.770;23.400;2022-12-07T06:08:40;95583.81;;;6.90;75.33
32197;BME280;18697;42.770;23.400;2022-12-07T06:11:06;95573.19;;;6.76;75.84
32197;BME280;18697;42.770;23.400;2022-12-07T06:13:49;95580.16;;;6.68;76.59
32197;BME280;18697;42.770;23.400;2022-12-07T06:16:15;95588.31;;;6.72;77.31
32197;BME280;18697;42.770;23.400;2022-12-07T06:18:40;95582.03;;;6.71;77.15
32197;BME280;18697;42.770;23.400;2022-12-07T06:21:06;95571.31;;;6.73;77.15
32197;BME280;18697;42.770;23.400;2022-12-07T06:23:31;95574.19;;;6.82;77.61
32197;BME280;18697;42.770;23.400;2022-12-07T06:25:56;95584.03;;;6.96;77.67
32197;BME280;18697;42.770;23.400;2022-12-07T06:28:22;95576.63;;;7.06;77.19
32197;BME280;18697;42.770;23.400;2022-12-07T06:30:47;95584.91;;;7.18;76.02
32197;BME280;18697;42.770;23.400;2022-12-07T06:33:13;95587.69;;;7.31;75.66
32197;BME280;18697;42.770;23.400;2022-12-07T06:35:38;95599.63;;;7.28;75.05
32197;BME280;18697;42.770;23.400;2022-12-07T06:38:03;95591.31;;;7.28;75.39
32197;BME280;18697;42.770;23.400;2022-12-07T06:40:29;95591.66;;;7.30;75.22
32197;BME280;18697;42.770;23.400;2022-12-07T06:42:54;95610.22;;;7.30;75.48
32197;BME280;18697;42.770;23.400;2022-12-07T06:45:20;95603.78;;;7.45;74.69
32197;BME280;18697;42.770;23.400;2022-12-07T06:47:45;95600.91;;;7.49;73.80
32197;BME280;18697;42.770;23.400;2022-12-07T06:50:11;95606.78;;;7.38;74.03
32197;BME280;18697;42.770;23.400;2022-12-07T06:52:36;95595.03;;;7.47;74.08
32197;BME280;18697;42.770;23.400;2022-12-07T06:55:01;95606.97;;;7.56;74.37
32197;BME280;18697;42.770;23.400;2022-12-07T06:57:27;95602.66;;;7.55;74.16
32197;BME280;18697;42.770;23.400;2022-12-07T06:59:52;95605.41;;;7.55;74.44
32197;BME280;18697;42.770;23.400;2022-12-07T07:02:17;95611.38;;;7.67;74.57
32197;BME280;18697;42.770;23.400;2022-12-07T07:04:43;95606.16;;;7.69;74.00
32197;BME280;18697;42.770;23.400;2022-12-07T07:07:08;95602.53;;;7.59;73.64
32197;BME280;18697;42.770;23.400;2022-12-07T07:09:34;95616.47;;;7.55;74.26
32197;BME280;18697;42.770;23.400;2022-12-07T07:11:59;95613.59;;;7.59;74.28
32197;BME280;18697;42.770;23.400;2022-12-07T07:14:25;95611.94;;;7.62;74.85
32197;BME280;18697;42.770;23.400;2022-12-07T07:16:50;95618.00;;;7.69;74.74
32197;BME280;18697;42.770;23.400;2022-12-07T07:19:16;95612.69;;;7.75;74.00
32197;BME280;18697;42.770;23.400;2022-12-07T07:21:41;95611.34;;;7.79;73.91
32197;BME280;18697;42.770;23.400;2022-12-07T07:24:07;95604.16;;;7.82;73.66
32197;BME280;18697;42.770;23.400;2022-12-07T07:26:32;95618.97;;;7.88;73.90
32197;BME280;18697;42.770;23.400;2022-12-07T07:28:58;95610.09;;;7.93;73.57
32197;BME280;18697;42.770;23.400;2022-12-07T07:31:23;95616.28;;;7.97;74.35
32197;BME280;18697;42.770;23.400;2022-12-07T07:33:48;95610.63;;;8.01;73.53
32197;BME280;18697;42.770;23.400;2022-12-07T07:36:14;95617.91;;;8.07;73.96
32197;BME280;18697;42.770;23.400;2022-12-07T07:38:39;95615.91;;;8.08;74.24
32197;BME280;18697;42.770;23.400;2022-12-07T07:41:04;95606.59;;;8.14;73.49
32197;BME280;18697;42.770;23.400;2022-12-07T07:43:30;95602.78;;;8.21;73.43
32197;BME280;18697;42.770;23.400;2022-12-07T07:45:55;95609.84;;;8.35;73.42
32197;BME280;18697;42.770;23.400;2022-12-07T07:48:21;95606.81;;;8.42;72.55
32197;BME280;18697;42.770;23.400;2022-12-07T07:50:48;95608.69;;;8.45;72.61
32197;BME280;18697;42.770;23.400;2022-12-07T07:53:13;95613.78;;;8.68;74.24
32197;BME280;18697;42.770;23.400;2022-12-07T07:55:38;95611.53;;;9.16;72.07
32197;BME280;18697;42.770;23.400;2022-12-07T07:58:04;95611.88;;;9.58;69.23
32197;BME280;18697;42.770;23.400;2022-12-07T08:00:29;95613.56;;;9.74;68.59
32197;BME280;18697;42.770;23.400;2022-12-07T08:02:54;95609.13;;;9.76;68.83
32197;BME280;18697;42.770;23.400;2022-12-07T08:05:20;95611.03;;;9.39;68.88
32197;BME280;18697;42.770;23.400;2022-12-07T08:07:45;95609.31;;;9.02;70.55
32197;BME280;18697;42.770;23.400;2022-12-07T08:10:11;95617.31;;;9.00;71.89
32197;BME280;18697;42.770;23.400;2022-12-07T08:12:38;95603.25;;;8.85;71.44
32197;BME280;18697;42.770;23.400;2022-12-07T08:15:25;95612.03;;;8.93;71.70
32197;BME280;18697;42.770;23.400;2022-12-07T08:17:52;95608.97;;;8.91;71.79
32197;BME280;18697;42.770;23.400;2022-12-07T08:20:17;95606.50;;;8.93;72.25
32197;BME280;18697;42.770;23.400;2022-12-07T08:22:42;95612.41;;;9.04;72.49
32197;BME280;18697;42.770;23.400;2022-12-07T08:25:08;95606.09;;;9.03;71.80
32197;BME280;18697;42.770;23.400;2022-12-07T08:27:33;95612.13;;;9.11;72.13
32197;BME280;18697;42.770;23.400;2022-12-07T08:29:58;95618.31;;;9.15;72.28
32197;BME280;18697;42.770;23.400;2022-12-07T08:32:24;95616.50;;;9.21;72.36
32197;BME280;18697;42.770;23.400;2022-12-07T08:34:49;95608.22;;;9.30;72.17
32197;BME280;18697;42.770;23.400;2022-12-07T08:37:15;95606.69;;;9.29;71.96
32197;BME280;18697;42.770;23.400;2022-12-07T08:39:40;95604.84;;;9.35;71.41
32197;BME280;18697;42.770;23.400;2022-12-07T08:42:05;95593.00;;;9.35;71.63
32197;BME280;18697;42.770;23.400;2022-12-07T08:44:31;95597.44;;;9.32;71.83
32197;BME280;18697;42.770;23.400;2022-12-07T08:46:59;95605.34;;;9.43;71.85
32197;BME280;18697;42.770;23.400;2022-12-07T08:49:43;95600.28;;;9.50;72.06
32197;BME280;18697;42.770;23.400;2022-12-07T08:52:11;95601.69;;;9.55;72.04
32197;BME280;18697;42.770;23.400;2022-12-07T08:54:38;95595.38;;;9.54;71.75
32197;BME280;18697;42.770;23.400;2022-12-07T08:57:05;95586.13;;;9.58;71.48
32197;BME280;18697;42.770;23.400;2022-12-07T08:59:33;95590.47;;;9.59;71.40
32197;BME280;18697;42.770;23.400;2022-12-07T09:01:59;95586.47;;;9.60;71.62
32197;BME280;18697;42.770;23.400;2022-12-07T09:04:25;95580.75;;;9.63;71.18
32197;BME280;18697;42.770;23.400;2022-12-07T09:06:50;95584.00;;;9.62;71.29
32197;BME280;18697;42.770;23.400;2022-12-07T09:09:16;95578.75;;;9.54;71.56
32197;BME280;18697;42.770;23.400;2022-12-07T09:11:41;95561.16;;;9.48;71.61
32197;BME280;18697;42.770;23.400;2022-12-07T09:14:06;95570.25;;;9.49;71.96
32197;BME280;18697;42.770;23.400;2022-12-07T09:16:32;95570.13;;;9.62;71.66
32197;BME280;18697;42.770;23.400;2022-12-07T09:18:57;95561.97;;;9.76;72.09
32197;BME280;18697;42.770;23.400;2022-12-07T09:21:22;95564.16;;;10.00;70.46
32197;BME280;18697;42.770;23.400;2022-12-07T09:23:48;95558.28;;;9.98;70.44
32197;BME280;18697;42.770;23.400;2022-12-07T09:26:13;95572.16;;;10.07;70.05
32197;BME280;18697;42.770;23.400;2022-12-07T09:28:39;95564.31;;;10.14;69.94
32197;BME280;18697;42.770;23.400;2022-12-07T09:31:05;95561.72;;;10.20;69.01
32197;BME280;18697;42.770;23.400;2022-12-07T09:33:30;95547.97;;;10.07;69.10
32197;BME280;18697;42.770;23.400;2022-12-07T09:35:56;95546.91;;;10.23;69.48
32197;BME280;18697;42.770;23.400;2022-12-07T09:38:21;95551.19;;;10.06;69.70
32197;BME280;18697;42.770;23.400;2022-12-07T09:40:47;95540.28;;;10.20;69.70
32197;BME280;18697;42.770;23.400;2022-12-07T09:43:17;95536.72;;;10.29;69.07
32197;BME280;18697;42.770;23.400;2022-12-07T09:45:44;95540.25;;;10.11;69.42
32197;BME280;18697;42.770;23.400;2022-12-07T09:48:36;95539.63;;;9.98;69.84
32197;BME280;18697;42.770;23.400;2022-12-07T09:51:14;95542.09;;;9.78;71.20
32197;BME280;18697;42.770;23.400;2022-12-07T09:53:41;95533.00;;;9.86;71.75
32197;BME280;18697;42.770;23.400;2022-12-07T09:56:11;95527.63;;;9.92;71.01
32197;BME280;18697;42.770;23.400;2022-12-07T09:58:38;95515.28;;;9.93;71.15
32197;BME280;18697;42.770;23.400;2022-12-07T10:01:13;95526.38;;;10.02;71.04
32197;BME280;18697;42.770;23.400;2022-12-07T10:03:45;95527.16;;;10.03;70.91
32197;BME280;18697;42.770;23.400;2022-12-07T10:06:13;95517.91;;;10.06;71.56
32197;BME280;18697;42.770;23.400;2022-12-07T10:08:39;95517.44;;;10.16;70.96
32197;BME280;18697;42.770;23.400;2022-12-07T10:11:07;95510.19;;;10.19;70.66
32197;BME280;18697;42.770;23.400;2022-12-07T10:13:47;95505.72;;;10.12;70.92
32197;BME280;18697;42.770;23.400;2022-12-07T10:16:38;95499.25;;;10.06;71.30
32197;BME280;18697;42.770;23.400;2022-12-07T10:19:25;95501.09;;;9.91;71.28
32197;BME280;18697;42.770;23.400;2022-12-07T10:22:14;95500.19;;;9.76;71.85
32197;BME280;18697;42.770;23.400;2022-12-07T10:24:41;95496.94;;;9.77;72.44
32197;BME280;18697;42.770;23.400;2022-12-07T10:27:22;95486.16;;;9.98;72.29
32197;BME280;18697;42.770;23.400;2022-12-07T10:29:52;95477.84;;;9.98;72.01
32197;BME280;18697;42.770;23.400;2022-12-07T10:34:43;95471.34;;;10.10;71.68
32197;BME280;18697;42.770;23.400;2022-12-07T10:39:48;95467.66;;;10.04;72.39
32197;BME280;18697;42.770;23.400;2022-12-07T10:42:28;95462.72;;;10.08;72.00
32197;BME280;18697;42.770;23.400;2022-12-07T11:01:51;95448.38;;;11.03;69.56
32197;BME280;18697;42.770;23.400;2022-12-07T11:07:00;95442.94;;;11.32;68.75
32197;BME280;18697;42.770;23.400;2022-12-07T11:12:23;95433.34;;;11.33;67.59
32197;BME280;18697;42.770;23.400;2022-12-07T11:23:08;95419.44;;;11.81;66.89
32197;BME280;18697;42.770;23.400;2022-12-07T11:28:22;95408.31;;;11.57;67.22
32197;BME280;18697;42.770;23.400;2022-12-07T11:33:52;95385.50;;;11.68;67.53
32197;BME280;18697;42.770;23.400;2022-12-07T11:38:51;95375.09;;;11.77;67.45
32197;BME280;18697;42.770;23.400;2022-12-07T11:41:24;95378.03;;;11.74;67.08
32197;BME280;18697;42.770;23.400;2022-12-07T11:44:27;95376.72;;;11.84;66.95
32197;BME280;18697;42.770;23.400;2022-12-07T11:47:05;95392.28;;;11.52;68.03
32197;BME280;18697;42.770;23.400;2022-12-07T11:51:59;95380.56;;;12.16;67.55
32197;BME280;18697;42.770;23.400;2022-12-07T11:54:32;95380.88;;;12.68;65.07
32197;BME280;18697;42.770;23.400;2022-12-07T11:57:04;95370.28;;;13.07;63.77
32197;BME280;18697;42.770;23.400;2022-12-07T11:59:45;95370.22;;;13.62;61.72
32197;BME280;18697;42.770;23.400;2022-12-07T12:02:41;95359.25;;;14.05;60.09
32197;BME280;18697;42.770;23.400;2022-12-07T12:05:17;95364.56;;;14.34;59.59
32197;BME280;18697;42.770;23.400;2022-12-07T12:07:44;95353.97;;;14.75;58.36
32197;BME280;18697;42.770;23.400;2022-12-07T12:15:23;95329.94;;;14.52;58.57
32197;BME280;18697;42.770;23.400;2022-12-07T12:25:45;95334.22;;;14.85;57.55
32197;BME280;18697;42.770;23.400;2022-12-07T12:31:05;95325.97;;;14.64;58.12
32197;BME280;18697;42.770;23.400;2022-12-07T12:33:32;95316.00;;;14.58;58.16
32197;BME280;18697;42.770;23.400;2022-12-07T12:44:01;95320.31;;;14.27;59.54
32197;BME280;18697;42.770;23.400;2022-12-07T12:51:44;95308.91;;;14.31;60.70
32197;BME280;18697;42.770;23.400;2022-12-07T12:54:20;95305.84;;;14.29;60.99
32197;BME280;18697;42.770;23.400;2022-12-07T12:56:51;95304.81;;;14.26;61.11
32197;BME280;18697;42.770;23.400;2022-12-07T13:01:48;95305.00;;;14.17;61.10
32197;BME280;18697;42.770;23.400;2022-12-07T13:04:33;95303.19;;;14.14;61.15
32197;BME280;18697;42.770;23.400;2022-12-07T13:07:12;95305.47;;;14.10;61.15
32197;BME280;18697;42.770;23.400;2022-12-07T13:09:42;95307.72;;;14.06;61.33
32197;BME280;18697;42.770;23.400;2022-12-07T13:12:13;95309.16;;;13.96;61.41
32197;BME280;18697;42.770;23.400;2022-12-07T13:14:58;95306.59;;;13.92;61.19
32197;BME280;18697;42.770;23.400;2022-12-07T13:20:00;95291.44;;;13.73;61.57
32197;BME280;18697;42.770;23.400;2022-12-07T13:25:09;95290.88;;;13.69;61.98
32197;BME280;18697;42.770;23.400;2022-12-07T13:27:41;95294.97;;;13.99;61.74
32197;BME280;18697;42.770;23.400;2022-12-07T13:30:19;95294.06;;;13.82;62.03
32197;BME280;18697;42.770;23.400;2022-12-07T13:32:53;95295.31;;;13.81;62.29
32197;BME280;18697;42.770;23.400;2022-12-07T13:35:36;95290.72;;;13.78;62.12
32197;BME280;18697;42.770;23.400;2022-12-07T13:38:24;95284.91;;;13.81;61.82
32197;BME280;18697;42.770;23.400;2022-12-07T13:41:14;95281.63;;;13.83;62.58
32197;BME280;18697;42.770;23.400;2022-12-07T13:44:08;95296.84;;;13.82;62.80
32197;BME280;18697;42.770;23.400;2022-12-07T13:49:24;95285.06;;;14.35;61.08
32197;BME280;18697;42.770;23.400;2022-12-07T13:51:51;95288.31;;;14.60;60.27
32197;BME280;18697;42.770;23.400;2022-12-07T13:54:18;95282.59;;;14.80;59.52
32197;BME280;18697;42.770;23.400;2022-12-07T13:56:44;95295.94;;;15.13;58.79
32197;BME280;18697;42.770;23.400;2022-12-07T13:59:24;95291.69;;;15.23;58.73
32197;BME280;18697;42.770;23.400;2022-12-07T14:01:51;95290.75;;;15.49;58.22
32197;BME280;18697;42.770;23.400;2022-12-07T14:04:32;95291.28;;;15.64;57.39
32197;BME280;18697;42.770;23.400;2022-12-07T14:06:58;95277.06;;;15.67;57.10
32197;BME280;18697;42.770;23.400;2022-12-07T14:09:27;95282.16;;;15.74;56.61
32197;BME280;18697;42.770;23.400;2022-12-07T14:11:55;95287.25;;;15.76;56.45
32197;BME280;18697;42.770;23.400;2022-12-07T14:14:30;95280.13;;;15.86;56.73
32197;BME280;18697;42.770;23.400;2022-12-07T14:17:01;95289.06;;;15.90;56.84
32197;BME280;18697;42.770;23.400;2022-12-07T14:22:17;95283.69;;;15.75;56.59
32197;BME280;18697;42.770;23.400;2022-12-07T14:24:44;95283.41;;;15.62;56.31
32197;BME280;18697;42.770;23.400;2022-12-07T14:27:22;95286.41;;;15.48;56.97
32197;BME280;18697;42.770;23.400;2022-12-07T14:29:48;95284.31;;;15.31;57.34
32197;BME280;18697;42.770;23.400;2022-12-07T14:35:15;95290.75;;;14.84;58.98
32197;BME280;18697;42.770;23.400;2022-12-07T14:37:44;95293.94;;;14.65;59.36
32197;BME280;18697;42.770;23.400;2022-12-07T14:40:17;95291.16;;;14.34;59.94
32197;BME280;18697;42.770;23.400;2022-12-07T14:42:45;95286.88;;;14.01;61.38
32197;BME280;18697;42.770;23.400;2022-12-07T14:45:17;95280.88;;;13.82;61.84
32197;BME280;18697;42.770;23.400;2022-12-07T14:47:44;95287.91;;;13.78;62.16
32197;BME280;18697;42.770;23.400;2022-12-07T14:50:16;95289.63;;;13.70;62.26
32197;BME280;18697;42.770;23.400;2022-12-07T14:52:46;95303.28;;;13.68;62.49
32197;BME280;18697;42.770;23.400;2022-12-07T14:55:33;95303.63;;;13.49;62.82
32197;BME280;18697;42.770;23.400;2022-12-07T14:57:59;95301.22;;;13.37;63.25
32197;BME280;18697;42.770;23.400;2022-12-07T15:00:27;95305.91;;;13.25;63.44
32197;BME280;18697;42.770;23.400;2022-12-07T15:02:54;95303.84;;;13.05;63.64
32197;BME280;18697;42.770;23.400;2022-12-07T15:05:20;95300.41;;;12.75;64.93
32197;BME280;18697;42.770;23.400;2022-12-07T15:07:46;95306.06;;;12.61;65.60
32197;BME280;18697;42.770;23.400;2022-12-07T15:10:21;95299.09;;;12.50;66.15